Time;durP1;ratioP1;P1;durP2;ratioP2;P2;SDS_P1;SDS_P2;PMS_P1;PMS_P2;Temp;Humidity;BMP_temperature;BMP_pressure;BME280_temperature;BME280_humidity;BME280_pressure;Samples;Min_cycle;Max_cycle;Signal;HPM_P1;HPM_P2
2023/08/19 00:02:28;;;;;;;4.47;2.75;;;24.30;99.90;;;24.85;100.00;100715.19;5179705;28;20535;-50
2023/08/19 00:05:01;;;;;;;3.15;2.33;;;24.30;99.90;;;24.79;100.00;100701.13;5179556;28;20046;-53
2023/08/19 00:07:33;;;;;;;4.03;2.40;;;24.20;99.90;;;24.72;100.00;100699.53;5179275;28;20054;-52
2023/08/19 00:10:07;;;;;;;4.00;2.70;;;24.20;99.90;;;24.66;100.00;100699.69;5162997;28;20138;-52
2023/08/19 00:12:40;;;;;;;3.45;2.40;;;24.10;99.90;;;24.58;100.00;100697.19;5179036;28;20424;-52
2023/08/19 00:15:12;;;;;;;3.38;2.33;;;24.00;99.90;;;24.51;100.00;100703.56;5162974;28;20534;-54
2023/08/19 00:17:46;;;;;;;2.60;2.20;;;23.90;99.90;;;24.44;100.00;100694.84;5162835;28;20500;-53
2023/08/19 00:20:18;;;;;;;4.32;2.33;;;23.90;99.90;;;24.38;100.00;100705.66;5162726;28;20054;-52
2023/08/19 00:22:51;;;;;;;2.97;2.10;;;23.80;99.90;;;24.33;100.00;100702.22;5162766;28;20101;-53
2023/08/19 00:25:24;;;;;;;2.75;1.90;;;23.70;99.90;;;24.28;100.00;100698.78;5162980;28;20054;-53
2023/08/19 00:28:00;;;;;;;2.47;2.03;;;23.70;99.90;;;24.24;100.00;100702.41;5162615;28;20050;-52
2023/08/19 00:30:33;;;;;;;3.75;2.58;;;23.60;99.90;;;24.18;100.00;100694.56;5162675;28;20070;-53
2023/08/19 00:33:09;;;;;;;3.35;2.40;;;23.60;99.90;;;24.13;100.00;100697.34;5162706;28;20054;-53
2023/08/19 00:35:42;;;;;;;3.85;2.33;;;23.50;99.90;;;24.06;100.00;100699.28;5162419;28;20459;-53
2023/08/19 00:38:14;;;;;;;4.32;2.40;;;23.50;99.90;;;24.00;100.00;100694.06;5162396;28;20054;-54
2023/08/19 00:40:47;;;;;;;3.30;2.42;;;23.40;99.90;;;23.97;100.00;100694.13;5162406;28;20046;-50
2023/08/19 00:43:19;;;;;;;3.95;2.40;;;23.40;99.90;;;23.93;100.00;100687.13;5162339;28;20038;-54
2023/08/19 00:45:52;;;;;;;3.22;2.22;;;23.40;99.90;;;23.90;100.00;100692.50;5162060;28;20061;-52
2023/08/19 00:48:27;;;;;;;2.70;1.95;;;23.30;99.90;;;23.88;100.00;100688.16;5162351;28;20173;-55
2023/08/19 00:51:02;;;;;;;2.92;2.38;;;23.30;99.90;;;23.84;100.00;100695.31;5162587;28;20053;-54
2023/08/19 00:53:35;;;;;;;3.05;2.50;;;23.20;99.90;;;23.82;100.00;100689.16;5161993;28;20046;-54
2023/08/19 00:56:07;;;;;;;3.65;2.38;;;23.20;99.90;;;23.79;100.00;100691.84;5162084;28;20416;-52
2023/08/19 00:58:40;;;;;;;3.70;2.38;;;23.20;99.90;;;23.75;100.00;100695.50;5162081;28;20053;-52
2023/08/19 01:01:12;;;;;;;3.88;2.42;;;23.20;99.90;;;23.72;100.00;100693.78;5162685;28;20046;-53
2023/08/19 01:03:46;;;;;;;3.80;2.33;;;23.10;99.90;;;23.71;100.00;100694.69;5161958;28;20061;-53
2023/08/19 01:06:26;;;;;;;3.50;2.42;;;23.10;99.90;;;23.68;100.00;100696.56;5162123;28;20050;-53
2023/08/19 01:09:13;;;;;;;4.20;2.28;;;23.10;99.90;;;23.66;100.00;100691.25;5163068;28;20049;-54
2023/08/19 01:11:58;;;;;;;3.90;2.58;;;23.10;99.90;;;23.63;100.00;100687.78;5161678;28;20054;-50
2023/08/19 01:14:42;;;;;;;3.78;2.92;;;23.00;99.90;;;23.61;100.00;100686.91;5161721;28;20050;-54
2023/08/19 01:17:18;;;;;;;3.72;2.50;;;23.00;99.90;;;23.59;100.00;100694.03;5161765;28;20485;-52
2023/08/19 01:19:54;;;;;;;3.42;2.30;;;23.00;99.90;;;23.57;100.00;100694.06;5161528;28;20050;-53
2023/08/19 01:22:39;;;;;;;4.50;2.33;;;23.00;99.90;;;23.54;100.00;100695.03;5161690;28;20057;-53
2023/08/19 01:25:13;;;;;;;3.67;2.50;;;23.00;99.90;;;23.52;100.00;100686.16;5161622;28;20096;-54
2023/08/19 01:27:46;;;;;;;3.97;2.63;;;22.90;99.90;;;23.52;100.00;100694.16;5161478;28;20503;-54
2023/08/19 01:30:18;;;;;;;2.80;2.33;;;22.90;99.90;;;23.49;100.00;100694.22;5161419;28;20054;-52
2023/08/19 01:32:51;;;;;;;3.90;2.33;;;22.90;99.90;;;23.50;100.00;100698.63;5161231;28;20054;-51
2023/08/19 01:35:24;;;;;;;6.18;2.60;;;22.90;99.90;;;23.49;100.00;100696.88;5161216;28;20068;-53
2023/08/19 01:38:03;;;;;;;3.88;2.42;;;22.90;99.90;;;23.48;100.00;100688.94;5161206;28;20046;-54
2023/08/19 01:40:38;;;;;;;3.95;2.38;;;22.90;99.90;;;23.47;100.00;100690.72;5161264;28;20065;-54
2023/08/19 01:43:12;;;;;;;2.90;2.13;;;22.90;99.90;;;23.47;100.00;100693.38;5160813;28;20058;-54
2023/08/19 01:45:44;;;;;;;3.92;2.22;;;22.90;99.90;;;23.48;100.00;100687.16;5161311;28;20056;-55
2023/08/19 01:48:17;;;;;;;7.00;3.10;;;22.90;99.90;;;23.46;100.00;100682.75;5177684;28;20069;-50
2023/08/19 01:50:49;;;;;;;5.30;3.17;;;22.90;99.90;;;23.46;100.00;100682.75;5153216;28;20042;-52
2023/08/19 01:53:22;;;;;;;5.80;3.53;;;22.90;99.90;;;23.46;100.00;100670.31;5161110;28;20049;-52
2023/08/19 01:55:55;;;;;;;5.57;3.03;;;22.90;99.90;;;23.48;100.00;100678.31;5161074;28;20057;-53
2023/08/19 01:58:28;;;;;;;4.90;2.70;;;22.90;99.90;;;23.50;100.00;100677.34;5160642;28;20064;-51
2023/08/19 02:01:01;;;;;;;4.10;2.63;;;22.90;99.90;;;23.49;100.00;100680.94;5160624;28;20061;-53
2023/08/19 02:03:33;;;;;;;3.45;2.60;;;22.90;99.90;;;23.49;100.00;100680.94;5160446;28;20047;-53
2023/08/19 02:06:06;;;;;;;4.32;2.67;;;23.00;99.90;;;23.47;100.00;100680.09;5161019;28;20050;-51
2023/08/19 02:08:38;;;;;;;5.35;2.75;;;22.90;99.90;;;23.44;100.00;100674.81;5161144;28;20058;-53
2023/08/19 02:11:12;;;;;;;3.72;2.38;;;22.90;99.90;;;23.42;100.00;100683.75;5160752;28;20057;-55
2023/08/19 02:13:44;;;;;;;3.47;2.45;;;22.90;99.90;;;23.39;100.00;100678.47;5161041;28;20551;-53
2023/08/19 02:16:17;;;;;;;4.55;2.10;;;22.80;99.90;;;23.35;100.00;100680.31;5161162;28;20105;-53
2023/08/19 02:18:49;;;;;;;4.30;2.38;;;22.80;99.90;;;23.33;100.00;100684.78;5160916;28;20519;-54
2023/08/19 02:21:21;;;;;;;4.05;2.50;;;22.80;99.90;;;23.29;100.00;100677.78;5160883;28;20060;-55
2023/08/19 02:23:54;;;;;;;4.15;2.25;;;22.70;99.90;;;23.29;100.00;100683.09;5160830;28;20042;-54
2023/08/19 02:26:28;;;;;;;2.88;1.95;;;22.70;99.90;;;23.27;100.00;100682.22;5162036;28;20046;-52
2023/08/19 02:29:00;;;;;;;2.85;1.85;;;22.70;99.90;;;23.27;100.00;100684.88;5160582;28;20551;-52
2023/08/19 02:31:33;;;;;;;3.67;2.20;;;22.70;99.90;;;23.27;100.00;100684.88;5160796;28;20047;-50
2023/08/19 02:34:05;;;;;;;2.72;2.10;;;22.70;99.90;;;23.25;100.00;100678.72;5160571;28;20050;-52
2023/08/19 02:36:38;;;;;;;3.25;2.28;;;22.70;99.90;;;23.25;100.00;100678.72;5160533;28;20108;-54
2023/08/19 02:39:11;;;;;;;2.35;1.83;;;22.70;99.90;;;23.25;100.00;100673.41;5160576;28;20050;-54
2023/08/19 02:41:45;;;;;;;4.32;2.20;;;22.60;99.90;;;23.23;100.00;100677.91;5160684;28;20050;-54
2023/08/19 02:44:20;;;;;;;2.80;2.10;;;22.70;99.90;;;23.25;100.00;100666.31;5176940;28;20046;-50
2023/08/19 02:46:53;;;;;;;6.45;2.90;;;22.60;99.90;;;23.21;100.00;100659.31;5160584;28;20046;-54
2023/08/19 02:49:26;;;;;;;6.05;3.00;;;22.70;99.90;;;23.23;100.00;100662.81;5171183;28;20147;-53
2023/08/19 02:51:59;;;;;;;4.28;2.80;;;22.70;99.90;;;23.23;100.00;100652.19;5176932;28;20419;-49
2023/08/19 02:54:35;;;;;;;5.70;2.75;;;22.70;99.90;;;23.26;100.00;100661.88;5178462;28;20538;-53
2023/08/19 02:57:09;;;;;;;4.15;2.50;;;22.70;99.90;;;23.29;100.00;100664.50;5164247;28;20137;-52
2023/08/19 02:59:41;;;;;;;3.47;2.58;;;22.70;99.90;;;23.32;100.00;100664.41;5180548;28;20061;-53
2023/08/19 03:02:17;;;;;;;3.72;2.65;;;22.80;99.90;;;23.34;100.00;100661.72;5180453;28;20046;-52
2023/08/19 03:04:50;;;;;;;4.57;2.70;;;22.80;99.90;;;23.36;100.00;100652.81;5180845;28;20054;-54
2023/08/19 03:07:23;;;;;;;4.15;2.58;;;22.90;99.90;;;23.37;100.00;100648.38;5180632;28;20050;-53
2023/08/19 03:09:55;;;;;;;5.60;2.50;;;22.80;99.90;;;23.37;100.00;100646.59;5180648;28;20046;-54
2023/08/19 03:12:29;;;;;;;4.00;2.55;;;22.80;99.90;;;23.38;100.00;100650.13;5177876;28;20412;-54
2023/08/19 03:15:01;;;;;;;4.65;2.53;;;22.90;99.90;;;23.39;100.00;100651.88;5164046;28;20046;-54
2023/08/19 03:17:33;;;;;;;4.80;2.50;;;22.90;99.90;;;23.39;100.00;100652.75;5163729;28;20196;-53
2023/08/19 03:20:08;;;;;;;3.75;2.70;;;22.90;99.90;;;23.41;100.00;100656.28;5164233;28;20088;-53
2023/08/19 03:22:40;;;;;;;2.88;2.22;;;22.90;99.90;;;23.41;100.00;100652.69;5163875;28;20124;-55
2023/08/19 03:25:13;;;;;;;3.33;2.40;;;22.90;99.90;;;23.41;100.00;100656.28;5163991;28;20141;-53
2023/08/19 03:27:47;;;;;;;2.97;1.95;;;22.90;99.90;;;23.40;100.00;100657.16;5163894;28;20419;-54
2023/08/19 03:30:20;;;;;;;4.45;2.47;;;22.90;99.90;;;23.40;100.00;100657.16;5163709;28;20053;-53
2023/08/19 03:32:52;;;;;;;4.65;2.20;;;22.80;99.90;;;23.38;100.00;100653.66;5163850;28;20411;-55
2023/08/19 03:35:25;;;;;;;3.08;2.78;;;22.80;99.90;;;23.36;100.00;100655.47;5163848;28;20137;-52
2023/08/19 03:37:58;;;;;;;2.88;1.90;;;22.80;99.90;;;23.35;100.00;100656.38;5163572;28;20049;-52
2023/08/19 03:40:31;;;;;;;3.78;2.13;;;22.80;99.90;;;23.32;100.00;100645.78;5163622;28;20054;-52
2023/08/19 03:43:05;;;;;;;3.85;2.13;;;22.80;99.90;;;23.28;100.00;100645.00;5163569;28;20061;-54
2023/08/19 03:45:38;;;;;;;3.88;2.65;;;22.80;99.90;;;23.25;100.00;100644.16;5163942;28;20050;-52
2023/08/19 03:48:11;;;;;;;6.70;2.63;;;22.70;99.90;;;23.23;100.00;100646.00;5163439;28;20092;-53
2023/08/19 03:50:44;;;;;;;6.45;2.70;;;22.70;99.90;;;23.22;100.00;100636.28;5163242;28;20511;-50
2023/08/19 03:53:16;;;;;;;6.75;2.85;;;22.70;99.90;;;23.20;100.00;100646.91;5163216;28;20057;-53
2023/08/19 03:55:50;;;;;;;4.78;2.80;;;22.70;99.90;;;23.22;100.00;100646.91;5163237;28;20057;-52
2023/08/19 03:58:27;;;;;;;4.25;2.75;;;22.70;99.90;;;23.23;100.00;100646.00;5163092;28;20455;-52
2023/08/19 04:01:05;;;;;;;3.85;2.35;;;22.70;99.90;;;23.22;100.00;100637.13;5163262;28;20047;-54
2023/08/19 04:03:39;;;;;;;2.50;2.17;;;22.70;99.90;;;23.21;100.00;100638.06;5163614;28;20137;-54
2023/08/19 04:06:11;;;;;;;2.88;2.33;;;22.70;99.90;;;23.20;100.00;100635.41;5162994;28;20503;-55
2023/08/19 04:08:44;;;;;;;3.33;2.05;;;22.70;99.90;;;23.20;100.00;100640.72;5163250;28;20137;-52
2023/08/19 04:11:17;;;;;;;3.13;2.13;;;22.60;99.90;;;23.19;100.00;100644.28;5162877;28;20085;-52
2023/08/19 04:13:50;;;;;;;2.78;1.92;;;22.60;99.90;;;23.19;100.00;100644.28;5163084;28;20046;-54
2023/08/19 04:16:23;;;;;;;;;;;22.60;99.90;;;23.16;100.00;100647.03;5162934;28;20042;-54
2023/08/19 04:18:56;;;;;;;2.40;1.85;;;22.70;99.90;;;23.16;100.00;100652.34;5179078;28;19922;-53
2023/08/19 04:21:28;;;;;;;2.63;1.90;;;22.60;99.90;;;23.15;100.00;100648.81;5162761;28;20057;-54
2023/08/19 04:24:02;;;;;;;2.88;2.17;;;22.70;99.90;;;23.16;100.00;100655.88;5162901;28;20054;-55
2023/08/19 04:26:34;;;;;;;2.22;1.92;;;22.60;99.90;;;23.17;100.00;100651.44;5163762;28;20125;-53
2023/08/19 04:29:08;;;;;;;3.15;1.85;;;22.60;99.90;;;23.16;100.00;100660.31;5162544;28;20589;-51
2023/08/19 04:31:41;;;;;;;2.72;1.98;;;22.60;99.90;;;23.16;100.00;100661.19;5162734;28;20534;-51
2023/08/19 04:34:14;;;;;;;2.10;1.80;;;22.60;99.90;;;23.17;100.00;100662.06;5162652;28;20050;-52
2023/08/19 04:36:46;;;;;;;2.10;1.65;;;22.60;99.90;;;23.17;100.00;100662.06;5162645;28;20050;-53
2023/08/19 04:39:20;;;;;;;2.72;1.88;;;22.60;99.90;;;23.17;100.00;100667.38;5162498;28;20109;-54
2023/08/19 04:41:54;;;;;;;3.63;1.83;;;22.60;99.90;;;23.18;100.00;100671.78;5162599;28;20678;-53
2023/08/19 04:44:29;;;;;;;2.35;1.98;;;22.60;99.90;;;23.18;100.00;100661.16;5163810;28;20038;-51
2023/08/19 04:47:04;;;;;;;3.35;1.88;;;22.70;99.90;;;23.18;100.00;100659.38;5178723;28;20419;-50
2023/08/19 04:49:37;;;;;;;3.05;1.85;;;22.60;99.90;;;23.19;100.00;100660.25;5178479;28;20055;-52
2023/08/19 04:52:11;;;;;;;2.60;1.75;;;22.60;99.90;;;23.21;100.00;100663.72;5178530;28;20046;-49
2023/08/19 04:54:43;;;;;;;2.45;1.95;;;22.60;99.90;;;23.22;100.00;100665.50;5178455;28;20057;-54
2023/08/19 04:57:16;;;;;;;2.20;1.75;;;22.60;99.90;;;23.22;100.00;100666.38;5178329;28;20049;-54
2023/08/19 04:59:49;;;;;;;2.92;1.77;;;22.70;99.90;;;23.28;100.00;100674.25;5178655;28;20054;-51
2023/08/19 05:02:22;;;;;;;2.67;1.90;;;22.70;99.90;;;23.34;100.00;100677.66;5178550;28;20057;-54
2023/08/19 05:04:55;;;;;;;3.40;1.98;;;22.80;99.90;;;23.38;100.00;100674.94;5178365;28;20477;-53
2023/08/19 05:07:27;;;;;;;4.18;2.08;;;22.80;99.90;;;23.45;100.00;100673.91;5178081;28;20061;-53
2023/08/19 05:10:00;;;;;;;3.22;2.08;;;22.90;99.90;;;23.52;100.00;100672.00;5178147;28;20057;-53
2023/08/19 05:12:33;;;;;;;3.50;2.22;;;22.90;99.90;;;23.64;100.00;100679.75;5177831;28;20058;-54
2023/08/19 05:15:11;;;;;;;2.53;2.00;;;23.10;99.90;;;23.72;100.00;100671.59;5177907;28;20073;-54
2023/08/19 05:17:44;;;;;;;3.33;2.10;;;23.20;99.90;;;23.82;100.00;100674.06;5177316;28;20416;-54
2023/08/19 05:20:16;;;;;;;6.43;2.22;;;23.30;99.90;;;24.16;100.00;100683.94;5178093;28;20516;-53
2023/08/19 05:22:52;;;;;;;2.30;1.90;;;23.40;99.90;;;24.92;100.00;100688.38;5177951;28;20057;-57
2023/08/19 05:25:24;;;;;;;3.58;2.13;;;23.90;99.90;;;25.72;100.00;100679.94;5177809;28;20070;-55
2023/08/19 05:27:57;;;;;;;3.38;2.20;;;24.60;99.90;;;26.47;100.00;100685.66;5157628;28;20054;-55
2023/08/19 05:30:31;;;;;;;2.90;2.00;;;25.20;99.90;;;27.08;100.00;100689.00;5157080;28;20415;-55
2023/08/19 05:33:04;;;;;;;3.95;2.13;;;25.80;99.90;;;27.66;100.00;100692.22;5182508;28;20050;-57
2023/08/19 05:35:36;;;;;;;3.05;2.03;;;26.30;99.90;;;28.14;100.00;100688.63;5168715;28;20100;-55
2023/08/19 05:38:09;;;;;;;3.65;2.13;;;26.90;99.90;;;28.58;97.82;100688.66;5168470;28;20506;-55
2023/08/19 05:40:41;;;;;;;4.45;2.40;;;27.40;99.90;;;28.82;95.60;100687.66;5156733;28;20520;-55
2023/08/19 05:43:13;;;;;;;4.85;2.20;;;27.70;99.90;;;29.14;93.99;100699.69;5186010;28;20127;-55
2023/08/19 05:45:47;;;;;;;6.72;2.28;;;28.00;99.90;;;29.61;91.98;100703.94;5168608;28;20061;-55
2023/08/19 05:48:19;;;;;;;3.83;2.15;;;28.50;99.90;;;29.92;89.69;100704.22;5168709;28;20042;-55
2023/08/19 05:50:52;;;;;;;3.65;2.10;;;28.80;99.70;;;30.06;88.23;100710.75;5168631;28;20100;-55
2023/08/19 05:53:24;;;;;;;5.50;2.17;;;29.00;99.00;;;30.16;88.13;100712.13;5168858;28;20042;-57
2023/08/19 05:55:57;;;;;;;3.67;2.10;;;29.20;98.70;;;30.32;87.26;100718.50;5167459;28;20089;-55
2023/08/19 05:58:29;;;;;;;3.85;2.05;;;29.40;98.20;;;30.58;85.96;100713.66;5160843;28;20121;-55
2023/08/19 06:01:04;;;;;;;4.53;2.03;;;29.60;97.70;;;30.93;85.47;100715.50;5170475;28;20050;-55
2023/08/19 06:03:36;;;;;;;4.20;2.13;;;29.90;97.30;;;31.01;82.89;100715.97;5159844;28;20077;-55
2023/08/19 06:06:09;;;;;;;5.32;2.25;;;30.10;96.10;;;30.97;83.34;100722.47;5167796;28;20046;-55
2023/08/19 06:08:43;;;;;;;4.20;2.22;;;30.10;95.90;;;30.97;84.56;100735.94;5161830;28;20043;-55
2023/08/19 06:11:15;;;;;;;5.20;2.30;;;30.10;96.10;;;30.65;83.96;100742.03;5160579;28;20077;-57
2023/08/19 06:13:47;;;;;;;3.58;2.22;;;29.90;95.60;;;30.09;84.81;100749.13;5160829;28;20046;-55
2023/08/19 06:16:21;;;;;;;4.68;2.33;;;29.50;95.60;;;29.61;86.24;100736.16;5162182;28;20038;-54
2023/08/19 06:18:53;;;;;;;4.85;2.03;;;29.00;96.00;;;29.07;88.31;100741.13;5159996;28;20058;-55
2023/08/19 06:21:26;;;;;;;3.70;2.13;;;28.60;96.50;;;28.49;90.45;100748.88;5163785;28;20038;-56
2023/08/19 06:23:58;;;;;;;3.03;1.90;;;28.10;97.20;;;28.06;92.23;100744.31;5159037;28;20054;-56
2023/08/19 06:26:30;;;;;;;3.92;2.20;;;27.70;97.90;;;27.74;93.89;100748.22;5164359;28;20057;-52
2023/08/19 06:29:06;;;;;;;3.75;2.35;;;27.30;98.80;;;27.46;95.19;100751.84;5160866;28;20054;-53
2023/08/19 06:31:41;;;;;;;3.10;2.00;;;27.00;99.20;;;27.20;96.66;100744.75;5168389;28;20061;-52
2023/08/19 06:34:14;;;;;;;4.68;2.35;;;26.80;99.80;;;27.00;97.88;100747.19;5162583;28;20054;-52
2023/08/19 06:36:53;;;;;;;2.58;2.10;;;26.50;99.90;;;26.74;99.57;100754.28;5162961;28;20046;-53
2023/08/19 06:39:27;;;;;;;5.60;2.42;;;26.30;99.90;;;26.58;100.00;100747.66;5179765;28;20046;-54
2023/08/19 06:42:03;;;;;;;5.25;2.50;;;26.10;99.90;;;26.44;100.00;100749.91;5160490;28;20070;-52
2023/08/19 06:44:39;;;;;;;3.33;1.95;;;25.90;99.90;;;26.32;100.00;100750.25;5170246;28;20046;-52
2023/08/19 06:47:22;;;;;;;3.42;2.42;;;25.80;99.90;;;26.13;100.00;100750.81;5189842;28;20101;-51
2023/08/19 06:49:55;;;;;;;6.68;2.30;;;25.60;99.90;;;26.05;100.00;100750.19;5174549;28;20423;-51
2023/08/19 06:52:28;;;;;;;5.53;2.67;;;25.50;99.90;;;26.00;100.00;100749.44;5163772;28;20049;-51
2023/08/19 06:55:05;;;;;;;4.15;2.00;;;25.50;99.90;;;25.95;100.00;100751.34;5175901;28;20057;-52
2023/08/19 06:57:47;;;;;;;4.45;2.03;;;25.50;99.90;;;25.93;100.00;100754.06;5162833;28;20055;-52
2023/08/19 07:00:22;;;;;;;4.82;2.22;;;25.50;99.90;;;25.95;100.00;100754.03;5154144;28;20088;-52
2023/08/19 07:03:05;;;;;;;6.97;2.58;;;25.40;99.90;;;25.94;100.00;100753.16;5191822;28;20046;-52
2023/08/19 07:05:38;;;;;;;3.95;2.30;;;25.40;99.90;;;25.93;100.00;100743.41;5172445;28;20093;-52
2023/08/19 07:08:12;;;;;;;4.30;2.60;;;25.40;99.90;;;25.96;100.00;100745.13;5162440;28;20078;-53
2023/08/19 07:10:45;;;;;;;3.40;2.15;;;25.40;99.90;;;25.96;100.00;100750.47;5175930;28;20464;-55
2023/08/19 07:13:18;;;;;;;6.57;2.35;;;25.40;99.90;;;25.94;100.00;100749.63;5180210;28;20042;-57
2023/08/19 07:16:02;;;;;;;4.72;2.42;;;25.40;99.90;;;25.92;100.00;100747.00;5160917;28;20054;-55
2023/08/19 07:18:39;;;;;;;4.65;2.15;;;25.40;99.90;;;25.90;100.00;100742.63;5172114;28;20059;-54
2023/08/19 07:21:14;;;;;;;5.88;2.60;;;25.30;99.90;;;25.90;100.00;100753.31;5165879;28;20046;-57
2023/08/19 07:23:48;;;;;;;4.45;2.25;;;25.40;99.90;;;25.89;100.00;100751.56;5172264;28;20042;-55
2023/08/19 07:26:23;;;;;;;5.75;2.30;;;25.30;99.90;;;25.88;100.00;100744.44;5179762;28;20149;-57
2023/08/19 07:28:56;;;;;;;4.05;2.22;;;25.30;99.90;;;25.88;100.00;100744.44;5196285;28;20042;-55
2023/08/19 07:31:30;;;;;;;3.78;2.08;;;25.30;99.90;;;25.89;100.00;100744.44;5180749;28;20046;-56
2023/08/19 07:34:04;;;;;;;3.80;2.38;;;25.40;99.90;;;25.92;100.00;100751.47;5171690;28;20526;-56
2023/08/19 07:36:36;;;;;;;;;;;25.30;99.90;;;25.91;100.00;100750.59;5182430;28;20041;-57
2023/08/19 07:39:08;;;;;;;4.50;2.30;;;25.30;99.90;;;25.95;100.00;100756.69;5164484;28;19930;-56
2023/08/19 07:41:41;;;;;;;2.83;2.20;;;25.40;99.90;;;25.93;100.00;100761.22;5161897;28;20050;-56
2023/08/19 07:44:13;;;;;;;3.88;2.20;;;25.40;99.90;;;25.95;100.00;100767.38;5164288;28;20060;-55
2023/08/19 07:46:46;;;;;;;4.80;2.42;;;25.40;99.90;;;25.95;100.00;100775.38;5169406;28;20042;-55
2023/08/19 07:49:20;;;;;;;2.13;1.85;;;25.40;99.90;;;25.98;100.00;100772.66;5169394;28;20050;-56
2023/08/19 07:51:52;;;;;;;2.45;2.00;;;25.40;99.90;;;26.01;100.00;100767.19;5169566;28;20056;-51
2023/08/19 07:54:24;;;;;;;3.35;2.00;;;25.50;99.90;;;26.06;100.00;100778.63;5171557;28;20768;-52
2023/08/19 07:56:57;;;;;;;4.45;2.08;;;25.40;99.90;;;26.10;100.00;100774.97;5170385;28;20050;-55
2023/08/19 07:59:30;;;;;;;3.45;1.80;;;25.50;99.90;;;26.17;100.00;100770.31;5161904;28;20046;-52
2023/08/19 08:02:02;;;;;;;4.47;1.95;;;25.50;99.90;;;26.29;100.00;100775.28;5178333;28;20503;-54
2023/08/19 08:04:36;;;;;;;3.97;2.05;;;25.60;99.90;;;26.35;100.00;100774.22;5191586;28;20049;-54
2023/08/19 08:07:08;;;;;;;2.90;1.80;;;25.60;99.90;;;26.44;100.00;100776.63;5181293;28;20042;-53
2023/08/19 08:09:43;;;;;;;7.40;2.33;;;25.70;99.90;;;26.47;100.00;100774.75;5166971;28;20038;-51
2023/08/19 08:12:16;;;;;;;3.38;2.22;;;25.80;99.90;;;26.56;100.00;100781.59;5172322;28;20507;-51
2023/08/19 08:14:48;;;;;;;3.28;2.25;;;25.80;99.90;;;26.66;100.00;100779.50;5162458;28;20070;-51
2023/08/19 08:17:21;;;;;;;3.83;2.30;;;25.90;99.90;;;26.77;100.00;100770.22;5172402;28;20049;-51
2023/08/19 08:19:57;;;;;;;2.90;2.33;;;26.00;99.90;;;26.91;100.00;100772.44;5175680;28;20049;-50
2023/08/19 08:22:29;;;;;;;4.07;2.65;;;26.10;99.90;;;27.00;100.00;100777.50;5161816;28;20054;-51
2023/08/19 08:25:09;;;;;;;3.75;2.30;;;26.20;99.90;;;27.07;100.00;100777.34;5186372;28;20511;-52
2023/08/19 08:27:41;;;;;;;4.63;2.17;;;26.30;99.90;;;27.18;100.00;100781.38;5184240;28;20041;-52
2023/08/19 08:30:14;;;;;;;4.10;2.35;;;26.40;99.90;;;27.57;100.00;100775.56;5179873;28;20065;-54
2023/08/19 08:32:47;;;;;;;3.25;2.20;;;26.60;99.90;;;28.50;100.00;100757.81;5167481;28;20052;-54
2023/08/19 08:35:20;;;;;;;3.55;2.08;;;27.00;99.90;;;29.62;97.99;100764.75;5163725;28;20492;-54
2023/08/19 08:37:53;;;;;;;3.65;2.30;;;27.70;99.90;;;29.97;95.46;100765.81;5168167;28;20049;-54
2023/08/19 08:40:25;;;;;;;3.45;2.10;;;28.10;99.90;;;29.80;94.06;100769.31;5171913;28;20050;-53
2023/08/19 08:43:04;;;;;;;4.00;2.20;;;28.30;99.90;;;29.29;94.67;100773.31;5176710;28;20061;-53
2023/08/19 08:45:37;;;;;;;4.25;2.08;;;28.20;99.90;;;29.03;96.16;100768.19;5177728;28;20069;-53
2023/08/19 08:48:12;;;;;;;5.30;2.35;;;28.00;99.90;;;28.84;97.21;100768.91;5158096;28;20548;-54
2023/08/19 08:50:47;;;;;;;3.50;2.17;;;27.90;99.90;;;29.07;97.67;100773.34;5172951;28;20045;-54
2023/08/19 08:53:20;;;;;;;3.28;2.00;;;28.00;99.90;;;30.24;95.52;100769.06;5178052;28;20062;-53
2023/08/19 08:55:54;;;;;;;4.45;1.92;;;28.60;99.90;;;31.16;89.80;100765.44;5161198;28;20046;-53
2023/08/19 08:58:26;;;;;;;3.45;2.03;;;29.30;99.90;;;31.02;88.87;100778.72;5160763;28;20752;-54
2023/08/19 09:01:02;;;;;;;3.15;1.73;;;29.40;99.70;;;30.48;89.77;100773.28;5167624;28;20714;-54
2023/08/19 09:03:35;;;;;;;3.65;2.00;;;29.30;99.40;;;30.09;90.96;100791.28;5177176;28;20049;-54
2023/08/19 09:06:16;;;;;;;2.75;1.98;;;29.10;99.70;;;30.50;90.96;100798.28;5173084;28;20054;-54
2023/08/19 09:08:56;;;;;;;4.70;2.33;;;29.20;99.80;;;30.61;90.10;100804.97;5160204;28;20069;-53
2023/08/19 09:11:29;;;;;;;3.05;2.05;;;29.30;99.50;;;30.39;90.10;100814.06;5170193;28;20050;-53
2023/08/19 09:14:11;;;;;;;2.92;2.33;;;29.20;99.20;;;30.04;91.18;100814.78;5169503;28;20054;-55
2023/08/19 09:16:44;;;;;;;4.53;2.47;;;29.00;99.20;;;30.11;91.47;100809.09;5161388;28;20054;-54
2023/08/19 09:19:19;;;;;;;3.70;2.35;;;29.00;99.40;;;30.56;89.97;100823.16;5161798;28;20050;-56
2023/08/19 09:21:53;;;;;;;2.78;2.10;;;29.30;99.10;;;30.99;88.65;100832.72;5180883;28;20052;-53
2023/08/19 09:24:25;;;;;;;3.33;2.20;;;29.60;98.80;;;31.24;87.63;100841.38;5178041;28;20060;-54
2023/08/19 09:26:58;;;;;;;3.85;2.25;;;29.90;98.40;;;31.15;87.76;100832.81;5158658;28;20661;-55
2023/08/19 09:29:30;;;;;;;3.92;2.20;;;29.90;98.10;;;31.02;88.68;100833.44;5187485;28;20478;-56
2023/08/19 09:32:03;;;;;;;3.15;2.03;;;29.90;98.20;;;30.83;89.22;100829.91;5173443;28;20051;-55
2023/08/19 09:34:35;;;;;;;2.70;2.17;;;29.80;98.30;;;30.76;89.87;100831.16;5184747;28;20082;-54
2023/08/19 09:37:13;;;;;;;4.00;2.30;;;29.80;98.50;;;30.66;88.73;100835.22;5147475;28;20080;-53
2023/08/19 09:39:48;;;;;;;5.68;2.00;;;29.70;97.90;;;30.73;88.05;100842.94;5154339;28;20034;-56
2023/08/19 09:42:22;;;;;;;4.32;2.28;;;29.70;97.80;;;30.78;87.62;100840.91;5176743;28;20084;-52
2023/08/19 09:44:54;;;;;;;3.47;1.88;;;29.70;97.60;;;30.89;87.49;100850.28;5162513;28;20050;-53
2023/08/19 09:47:30;;;;;;;7.18;2.30;;;29.80;97.60;;;30.94;87.06;100843.72;5167032;28;20415;-55
2023/08/19 09:50:03;;;;;;;4.22;2.40;;;29.80;97.40;;;31.18;87.27;100843.47;5179317;28;20038;-53
2023/08/19 09:52:37;;;;;;;3.22;2.40;;;30.00;97.50;;;31.43;86.28;100845.78;5160002;28;20050;-54
2023/08/19 09:55:09;;;;;;;3.22;2.47;;;30.20;97.10;;;31.46;85.75;100853.72;5168347;28;20051;-56
2023/08/19 09:57:42;;;;;;;3.45;2.28;;;30.30;96.80;;;31.49;85.98;100843.66;5161275;28;20185;-53
2023/08/19 10:00:15;;;;;;;2.90;1.90;;;30.40;96.80;;;31.67;85.81;100843.66;5160299;28;20046;-53
2023/08/19 10:02:47;;;;;;;4.55;2.40;;;30.50;96.70;;;31.93;84.50;100853.97;5167171;28;20034;-56
2023/08/19 10:05:21;;;;;;;3.45;2.30;;;30.70;96.30;;;32.17;83.42;100841.00;5169186;28;20051;-54
2023/08/19 10:07:59;;;;;;;3.47;2.28;;;30.90;95.90;;;32.23;82.43;100854.16;5179932;28;20505;-53
2023/08/19 10:10:32;;;;;;;3.05;1.92;;;31.00;95.30;;;32.28;82.01;100849.38;5162093;28;20057;-54
2023/08/19 10:13:09;;;;;;;2.90;2.22;;;31.10;95.10;;;32.12;81.10;100849.34;5196295;28;20050;-53
2023/08/19 10:15:44;;;;;;;6.85;2.22;;;31.00;94.40;;;31.89;81.31;100852.41;5188709;28;20049;-53
2023/08/19 10:18:19;;;;;;;;;;;30.90;94.30;;;31.72;81.33;100852.38;5179563;28;20053;-54
2023/08/19 10:20:58;;;;;;;4.47;2.40;;;30.80;94.20;;;31.80;81.43;100845.66;5167369;28;19965;-54
2023/08/19 10:23:36;;;;;;;3.53;2.35;;;30.80;94.10;;;31.94;81.48;100855.72;5175405;28;20053;-55
2023/08/19 10:26:09;;;;;;;3.40;2.40;;;30.80;94.20;;;32.10;81.29;100864.72;5167414;28;20057;-55
2023/08/19 10:28:41;;;;;;;3.92;2.20;;;31.00;94.20;;;32.36;80.04;100851.69;5159849;28;20416;-53
2023/08/19 10:31:15;;;;;;;2.63;2.00;;;31.10;93.70;;;32.63;79.65;100855.53;5175489;28;20145;-55
2023/08/19 10:33:48;;;;;;;2.92;2.20;;;31.40;93.70;;;32.84;78.60;100858.84;5156689;28;20042;-53
2023/08/19 10:36:21;;;;;;;3.53;2.13;;;31.60;93.10;;;33.03;77.85;100853.31;5171819;28;20041;-53